CheckWX is a tool to help pilots better visualize weather data.  It is not intended as a substitute for an official pre-flight weather briefing.

15:43:53 UTC

KNMM METAR
Meridian NAS / Mc Cain Field Airport
Meridian, Mississippi, USA
Current

48 mins ago

KNMM 261456Z AUTO 36004KT 10SM CLR 29/21 A3018 RMK AO2 SLP227 T02940211 51005 $
Observed
May-26 @ 14:56 UTC
Wind
  • 360° at 4 KTS
Visibility
10 SM
Flight Rules
VFR
Cloud Levels
  • Clear skies
Temperature
29°C / 84°F
Dewpoint
21°C / 70°F
Heat Index
31°C / 88°F
Humidity
62%
Altimeter
30.18" Hg
Pressure
1022.02 hPa
Previous

2 hours ago

KNMM 261356Z AUTO 33004KT 10SM CLR 28/22 A3018 RMK AO2 SLP227 T02780217 $
Observed
May-26 @ 13:56 UTC
Wind
  • 330° at 4 KTS
Visibility
10 SM
Flight Rules
VFR
Cloud Levels
  • Clear skies
Temperature
28°C / 82°F
Dewpoint
22°C / 72°F
Heat Index
30°C / 86°F
Humidity
70%
Altimeter
30.18" Hg
Pressure
1022.02 hPa
Previous

3 hours ago

KNMM 261256Z AUTO 00000KT 10SM CLR 24/21 A3018 RMK AO2 SLP225 T02440211 $
Observed
May-26 @ 12:56 UTC
Visibility
10 SM
Flight Rules
VFR
Cloud Levels
  • Clear skies
Temperature
24°C / 75°F
Dewpoint
21°C / 70°F
Humidity
83%
Altimeter
30.18" Hg
Pressure
1022.02 hPa